sensor_id;sensor_type;location;lat;lon;timestamp;temperature;humidity
35700;DHT22;21818;51.078;12.108;2023-08-17T00:02:13;24.30;96.40
35700;DHT22;21818;51.078;12.108;2023-08-17T00:04:39;24.30;96.30
35700;DHT22;21818;51.078;12.108;2023-08-17T00:07:05;24.30;96.30
35700;DHT22;21818;51.078;12.108;2023-08-17T00:09:32;24.20;96.30
35700;DHT22;21818;51.078;12.108;2023-08-17T00:11:58;24.10;96.50
35700;DHT22;21818;51.078;12.108;2023-08-17T00:14:23;24.00;96.70
35700;DHT22;21818;51.078;12.108;2023-08-17T00:16:50;24.10;96.70
35700;DHT22;21818;51.078;12.108;2023-08-17T00:19:16;24.20;96.60
35700;DHT22;21818;51.078;12.108;2023-08-17T00:21:42;24.20;96.50
35700;DHT22;21818;51.078;12.108;2023-08-17T00:24:07;24.10;96.60
35700;DHT22;21818;51.078;12.108;2023-08-17T00:26:33;23.80;96.90
35700;DHT22;21818;51.078;12.108;2023-08-17T00:28:59;23.70;97.20
35700;DHT22;21818;51.078;12.108;2023-08-17T00:31:24;23.80;97.10
35700;DHT22;21818;51.078;12.108;2023-08-17T00:33:50;24.00;96.80
35700;DHT22;21818;51.078;12.108;2023-08-17T00:36:16;24.20;96.60
35700;DHT22;21818;51.078;12.108;2023-08-17T00:38:41;24.20;96.50
35700;DHT22;21818;51.078;12.108;2023-08-17T00:41:07;24.20;96.50
35700;DHT22;21818;51.078;12.108;2023-08-17T00:43:32;23.90;96.80
35700;DHT22;21818;51.078;12.108;2023-08-17T00:45:58;23.70;97.20
35700;DHT22;21818;51.078;12.108;2023-08-17T00:48:25;23.60;97.40
35700;DHT22;21818;51.078;12.108;2023-08-17T00:50:52;23.60;97.50
35700;DHT22;21818;51.078;12.108;2023-08-17T00:53:19;23.70;97.40
35700;DHT22;21818;51.078;12.108;2023-08-17T00:55:45;23.80;97.30
35700;DHT22;21818;51.078;12.108;2023-08-17T00:58:11;23.90;97.20
35700;DHT22;21818;51.078;12.108;2023-08-17T01:00:37;24.00;96.90
35700;DHT22;21818;51.078;12.108;2023-08-17T01:03:03;24.00;96.80
35700;DHT22;21818;51.078;12.108;2023-08-17T01:05:29;23.80;97.20
35700;DHT22;21818;51.078;12.108;2023-08-17T01:07:58;23.60;97.40
35700;DHT22;21818;51.078;12.108;2023-08-17T01:10:33;23.40;97.60
35700;DHT22;21818;51.078;12.108;2023-08-17T01:13:09;23.30;97.80
35700;DHT22;21818;51.078;12.108;2023-08-17T01:15:39;23.00;98.00
35700;DHT22;21818;51.078;12.108;2023-08-17T01:18:20;22.80;98.30
35700;DHT22;21818;51.078;12.108;2023-08-17T01:20:49;22.80;98.70
35700;DHT22;21818;51.078;12.108;2023-08-17T01:23:14;22.70;98.80
35700;DHT22;21818;51.078;12.108;2023-08-17T01:25:40;22.70;98.80
35700;DHT22;21818;51.078;12.108;2023-08-17T01:28:06;22.70;98.90
35700;DHT22;21818;51.078;12.108;2023-08-17T01:30:39;22.80;98.90
35700;DHT22;21818;51.078;12.108;2023-08-17T01:33:10;22.80;98.80
35700;DHT22;21818;51.078;12.108;2023-08-17T01:35:55;22.80;98.60
35700;DHT22;21818;51.078;12.108;2023-08-17T01:38:25;22.90;98.70
35700;DHT22;21818;51.078;12.108;2023-08-17T01:40:54;22.90;98.60
35700;DHT22;21818;51.078;12.108;2023-08-17T01:43:20;22.90;98.50
35700;DHT22;21818;51.078;12.108;2023-08-17T01:45:46;22.80;98.20
35700;DHT22;21818;51.078;12.108;2023-08-17T01:48:12;22.70;98.00
35700;DHT22;21818;51.078;12.108;2023-08-17T01:50:37;22.60;97.80
35700;DHT22;21818;51.078;12.108;2023-08-17T01:53:03;22.60;97.70
35700;DHT22;21818;51.078;12.108;2023-08-17T01:55:29;22.60;97.60
35700;DHT22;21818;51.078;12.108;2023-08-17T01:57:54;22.50;97.50
35700;DHT22;21818;51.078;12.108;2023-08-17T02:00:20;22.60;97.40
35700;DHT22;21818;51.078;12.108;2023-08-17T02:02:46;22.70;97.30
35700;DHT22;21818;51.078;12.108;2023-08-17T02:05:11;22.80;97.10
35700;DHT22;21818;51.078;12.108;2023-08-17T02:07:37;22.90;97.10
35700;DHT22;21818;51.078;12.108;2023-08-17T02:10:03;22.90;97.00
35700;DHT22;21818;51.078;12.108;2023-08-17T02:12:28;22.90;97.00
35700;DHT22;21818;51.078;12.108;2023-08-17T02:14:54;22.90;97.00
35700;DHT22;21818;51.078;12.108;2023-08-17T02:17:20;22.90;97.10
35700;DHT22;21818;51.078;12.108;2023-08-17T02:19:47;22.80;97.20
35700;DHT22;21818;51.078;12.108;2023-08-17T02:22:13;22.80;97.20
35700;DHT22;21818;51.078;12.108;2023-08-17T02:24:39;22.80;97.30
35700;DHT22;21818;51.078;12.108;2023-08-17T02:27:06;22.70;97.30
35700;DHT22;21818;51.078;12.108;2023-08-17T02:29:32;22.70;97.40
35700;DHT22;21818;51.078;12.108;2023-08-17T02:31:57;22.70;97.40
35700;DHT22;21818;51.078;12.108;2023-08-17T02:34:23;22.70;97.40
35700;DHT22;21818;51.078;12.108;2023-08-17T02:36:49;22.70;97.40
35700;DHT22;21818;51.078;12.108;2023-08-17T02:39:14;22.70;97.40
35700;DHT22;21818;51.078;12.108;2023-08-17T02:41:40;22.80;97.40
35700;DHT22;21818;51.078;12.108;2023-08-17T02:44:06;22.80;97.30
35700;DHT22;21818;51.078;12.108;2023-08-17T02:46:31;22.90;97.20
35700;DHT22;21818;51.078;12.108;2023-08-17T02:48:57;22.90;97.20
35700;DHT22;21818;51.078;12.108;2023-08-17T02:51:23;22.90;97.20
35700;DHT22;21818;51.078;12.108;2023-08-17T02:53:48;22.90;97.10
35700;DHT22;21818;51.078;12.108;2023-08-17T02:56:14;23.00;97.10
35700;DHT22;21818;51.078;12.108;2023-08-17T02:58:40;23.10;97.00
35700;DHT22;21818;51.078;12.108;2023-08-17T03:01:06;23.20;96.80
35700;DHT22;21818;51.078;12.108;2023-08-17T03:03:32;23.30;96.70
35700;DHT22;21818;51.078;12.108;2023-08-17T03:05:58;23.30;96.60
35700;DHT22;21818;51.078;12.108;2023-08-17T03:08:23;23.30;96.70
35700;DHT22;21818;51.078;12.108;2023-08-17T03:10:49;23.10;96.90
35700;DHT22;21818;51.078;12.108;2023-08-17T03:13:14;23.20;96.90
35700;DHT22;21818;51.078;12.108;2023-08-17T03:15:40;23.10;96.90
35700;DHT22;21818;51.078;12.108;2023-08-17T03:18:06;23.10;97.00
35700;DHT22;21818;51.078;12.108;2023-08-17T03:20:32;23.00;97.10
35700;DHT22;21818;51.078;12.108;2023-08-17T03:22:57;22.90;97.10
35700;DHT22;21818;51.078;12.108;2023-08-17T03:25:23;22.90;97.20
35700;DHT22;21818;51.078;12.108;2023-08-17T03:27:48;22.80;97.20
35700;DHT22;21818;51.078;12.108;2023-08-17T03:30:14;22.70;97.30
35700;DHT22;21818;51.078;12.108;2023-08-17T03:32:40;22.70;97.30
35700;DHT22;21818;51.078;12.108;2023-08-17T03:35:06;22.70;97.30
35700;DHT22;21818;51.078;12.108;2023-08-17T03:37:32;22.60;97.50
35700;DHT22;21818;51.078;12.108;2023-08-17T03:39:57;22.50;97.60
35700;DHT22;21818;51.078;12.108;2023-08-17T03:42:23;22.40;97.80
35700;DHT22;21818;51.078;12.108;2023-08-17T03:44:49;22.30;97.90
35700;DHT22;21818;51.078;12.108;2023-08-17T03:47:14;22.40;97.90
35700;DHT22;21818;51.078;12.108;2023-08-17T03:49:40;22.50;98.10
35700;DHT22;21818;51.078;12.108;2023-08-17T03:52:06;22.50;97.90
35700;DHT22;21818;51.078;12.108;2023-08-17T03:54:31;22.70;97.80
35700;DHT22;21818;51.078;12.108;2023-08-17T03:56:57;22.80;97.50
35700;DHT22;21818;51.078;12.108;2023-08-17T03:59:22;22.90;97.30
35700;DHT22;21818;51.078;12.108;2023-08-17T04:01:50;23.00;97.20
35700;DHT22;21818;51.078;12.108;2023-08-17T04:04:15;23.10;97.10
35700;DHT22;21818;51.078;12.108;2023-08-17T04:06:41;23.10;97.00
35700;DHT22;21818;51.078;12.108;2023-08-17T04:09:07;23.20;96.90
35700;DHT22;21818;51.078;12.108;2023-08-17T04:11:35;23.20;97.00
35700;DHT22;21818;51.078;12.108;2023-08-17T04:14:02;23.30;96.80
35700;DHT22;21818;51.078;12.108;2023-08-17T04:16:28;23.30;96.70
35700;DHT22;21818;51.078;12.108;2023-08-17T04:18:53;23.30;96.70
35700;DHT22;21818;51.078;12.108;2023-08-17T04:21:19;23.30;96.60
35700;DHT22;21818;51.078;12.108;2023-08-17T04:23:45;23.40;96.60
35700;DHT22;21818;51.078;12.108;2023-08-17T04:26:11;23.40;96.60
35700;DHT22;21818;51.078;12.108;2023-08-17T04:28:37;23.40;96.50
35700;DHT22;21818;51.078;12.108;2023-08-17T04:31:02;23.40;96.60
35700;DHT22;21818;51.078;12.108;2023-08-17T04:33:28;23.30;96.70
35700;DHT22;21818;51.078;12.108;2023-08-17T04:35:53;23.10;97.00
35700;DHT22;21818;51.078;12.108;2023-08-17T04:38:19;22.90;97.30
35700;DHT22;21818;51.078;12.108;2023-08-17T04:40:45;22.80;97.50
35700;DHT22;21818;51.078;12.108;2023-08-17T04:43:10;22.80;97.60
35700;DHT22;21818;51.078;12.108;2023-08-17T04:45:36;22.90;97.40
35700;DHT22;21818;51.078;12.108;2023-08-17T04:48:02;23.00;97.40
35700;DHT22;21818;51.078;12.108;2023-08-17T04:50:28;23.10;97.00
35700;DHT22;21818;51.078;12.108;2023-08-17T04:52:53;23.20;96.80
35700;DHT22;21818;51.078;12.108;2023-08-17T04:55:19;23.30;96.80
35700;DHT22;21818;51.078;12.108;2023-08-17T04:57:44;23.30;96.70
35700;DHT22;21818;51.078;12.108;2023-08-17T05:00:11;23.20;96.80
35700;DHT22;21818;51.078;12.108;2023-08-17T05:02:37;23.00;97.10
35700;DHT22;21818;51.078;12.108;2023-08-17T05:05:05;22.90;97.30
35700;DHT22;21818;51.078;12.108;2023-08-17T05:07:31;22.80;97.40
35700;DHT22;21818;51.078;12.108;2023-08-17T05:09:57;22.80;97.50
35700;DHT22;21818;51.078;12.108;2023-08-17T05:12:22;22.70;97.50
35700;DHT22;21818;51.078;12.108;2023-08-17T05:14:48;22.70;97.60
35700;DHT22;21818;51.078;12.108;2023-08-17T05:17:14;22.70;97.60
35700;DHT22;21818;51.078;12.108;2023-08-17T05:19:39;22.70;97.70
35700;DHT22;21818;51.078;12.108;2023-08-17T05:22:11;22.70;97.70
35700;DHT22;21818;51.078;12.108;2023-08-17T05:24:38;22.70;97.60
35700;DHT22;21818;51.078;12.108;2023-08-17T05:27:03;22.70;97.60
35700;DHT22;21818;51.078;12.108;2023-08-17T05:29:30;22.70;97.60
35700;DHT22;21818;51.078;12.108;2023-08-17T05:31:58;22.70;97.90
35700;DHT22;21818;51.078;12.108;2023-08-17T05:34:24;22.70;97.70
35700;DHT22;21818;51.078;12.108;2023-08-17T05:36:49;22.70;98.00
35700;DHT22;21818;51.078;12.108;2023-08-17T05:39:15;22.60;97.80
35700;DHT22;21818;51.078;12.108;2023-08-17T05:41:41;22.60;97.90
35700;DHT22;21818;51.078;12.108;2023-08-17T05:44:06;22.60;97.90
35700;DHT22;21818;51.078;12.108;2023-08-17T05:46:33;22.60;98.20
35700;DHT22;21818;51.078;12.108;2023-08-17T05:48:59;22.50;98.00
35700;DHT22;21818;51.078;12.108;2023-08-17T05:51:25;22.60;98.10
35700;DHT22;21818;51.078;12.108;2023-08-17T05:53:51;22.60;98.20
35700;DHT22;21818;51.078;12.108;2023-08-17T05:56:16;22.60;98.20
35700;DHT22;21818;51.078;12.108;2023-08-17T05:58:42;22.60;98.20
35700;DHT22;21818;51.078;12.108;2023-08-17T06:01:09;22.60;98.20
35700;DHT22;21818;51.078;12.108;2023-08-17T06:03:36;22.60;98.30
35700;DHT22;21818;51.078;12.108;2023-08-17T06:06:02;22.60;98.20
35700;DHT22;21818;51.078;12.108;2023-08-17T06:08:28;22.60;98.30
35700;DHT22;21818;51.078;12.108;2023-08-17T06:10:54;22.60;98.30
35700;DHT22;21818;51.078;12.108;2023-08-17T06:13:20;22.60;98.30
35700;DHT22;21818;51.078;12.108;2023-08-17T06:15:46;22.60;98.30
35700;DHT22;21818;51.078;12.108;2023-08-17T06:18:11;22.80;98.10
35700;DHT22;21818;51.078;12.108;2023-08-17T06:20:37;22.90;97.90
35700;DHT22;21818;51.078;12.108;2023-08-17T06:23:03;22.90;97.90
35700;DHT22;21818;51.078;12.108;2023-08-17T06:25:28;22.90;97.90
35700;DHT22;21818;51.078;12.108;2023-08-17T06:27:54;23.00;98.10
35700;DHT22;21818;51.078;12.108;2023-08-17T06:30:20;23.00;97.90
35700;DHT22;21818;51.078;12.108;2023-08-17T06:32:45;23.00;97.80
35700;DHT22;21818;51.078;12.108;2023-08-17T06:35:11;23.00;98.00
35700;DHT22;21818;51.078;12.108;2023-08-17T06:37:36;23.00;97.90
35700;DHT22;21818;51.078;12.108;2023-08-17T06:40:03;22.90;98.10
35700;DHT22;21818;51.078;12.108;2023-08-17T06:42:30;23.00;97.90
35700;DHT22;21818;51.078;12.108;2023-08-17T06:44:56;23.00;97.90
35700;DHT22;21818;51.078;12.108;2023-08-17T06:47:22;23.00;97.90
35700;DHT22;21818;51.078;12.108;2023-08-17T06:49:47;23.00;98.10
35700;DHT22;21818;51.078;12.108;2023-08-17T06:52:13;23.00;98.00
35700;DHT22;21818;51.078;12.108;2023-08-17T06:54:38;23.00;98.00
35700;DHT22;21818;51.078;12.108;2023-08-17T06:57:05;23.00;98.00
35700;DHT22;21818;51.078;12.108;2023-08-17T06:59:30;23.00;98.00
35700;DHT22;21818;51.078;12.108;2023-08-17T07:01:58;23.00;98.00
35700;DHT22;21818;51.078;12.108;2023-08-17T07:04:24;22.90;98.10
35700;DHT22;21818;51.078;12.108;2023-08-17T07:06:50;23.00;98.10
35700;DHT22;21818;51.078;12.108;2023-08-17T07:09:16;23.00;98.10
35700;DHT22;21818;51.078;12.108;2023-08-17T07:11:41;23.00;98.10
35700;DHT22;21818;51.078;12.108;2023-08-17T07:14:07;23.00;98.10
35700;DHT22;21818;51.078;12.108;2023-08-17T07:16:33;23.10;98.20
35700;DHT22;21818;51.078;12.108;2023-08-17T07:18:58;23.10;98.40
35700;DHT22;21818;51.078;12.108;2023-08-17T07:21:24;23.10;98.20
35700;DHT22;21818;51.078;12.108;2023-08-17T07:23:50;23.10;98.20
35700;DHT22;21818;51.078;12.108;2023-08-17T07:26:17;23.10;98.20
35700;DHT22;21818;51.078;12.108;2023-08-17T07:28:44;23.10;98.20
35700;DHT22;21818;51.078;12.108;2023-08-17T07:31:10;23.30;98.20
35700;DHT22;21818;51.078;12.108;2023-08-17T07:33:36;23.30;98.20
35700;DHT22;21818;51.078;12.108;2023-08-17T07:36:02;23.30;98.40
35700;DHT22;21818;51.078;12.108;2023-08-17T07:38:28;23.30;98.20
35700;DHT22;21818;51.078;12.108;2023-08-17T07:40:55;23.30;98.20
35700;DHT22;21818;51.078;12.108;2023-08-17T07:43:21;23.40;98.30
35700;DHT22;21818;51.078;12.108;2023-08-17T07:45:53;23.40;98.30
35700;DHT22;21818;51.078;12.108;2023-08-17T07:48:19;23.40;98.30
35700;DHT22;21818;51.078;12.108;2023-08-17T07:50:51;23.40;98.20
35700;DHT22;21818;51.078;12.108;2023-08-17T07:53:18;23.50;98.30
35700;DHT22;21818;51.078;12.108;2023-08-17T07:55:44;23.50;98.30
35700;DHT22;21818;51.078;12.108;2023-08-17T07:58:10;23.60;98.50
35700;DHT22;21818;51.078;12.108;2023-08-17T08:00:35;23.60;98.30
35700;DHT22;21818;51.078;12.108;2023-08-17T08:03:01;23.60;98.30
35700;DHT22;21818;51.078;12.108;2023-08-17T08:05:27;23.70;98.30
35700;DHT22;21818;51.078;12.108;2023-08-17T08:07:53;23.70;98.30
35700;DHT22;21818;51.078;12.108;2023-08-17T08:10:18;23.70;98.20
35700;DHT22;21818;51.078;12.108;2023-08-17T08:12:44;23.70;98.20
35700;DHT22;21818;51.078;12.108;2023-08-17T08:15:10;23.70;98.20
35700;DHT22;21818;51.078;12.108;2023-08-17T08:17:35;23.80;98.10
35700;DHT22;21818;51.078;12.108;2023-08-17T08:20:02;23.80;98.20
35700;DHT22;21818;51.078;12.108;2023-08-17T08:22:28;23.80;98.20
35700;DHT22;21818;51.078;12.108;2023-08-17T08:24:54;23.80;98.20
35700;DHT22;21818;51.078;12.108;2023-08-17T08:27:19;23.80;98.30
35700;DHT22;21818;51.078;12.108;2023-08-17T08:29:45;23.90;98.30
35700;DHT22;21818;51.078;12.108;2023-08-17T08:32:10;23.90;98.30
35700;DHT22;21818;51.078;12.108;2023-08-17T08:34:36;23.90;98.30
35700;DHT22;21818;51.078;12.108;2023-08-17T08:37:02;24.00;98.30
35700;DHT22;21818;51.078;12.108;2023-08-17T08:39:28;24.00;98.30
35700;DHT22;21818;51.078;12.108;2023-08-17T08:41:53;24.00;98.30
35700;DHT22;21818;51.078;12.108;2023-08-17T08:44:19;24.00;98.30
35700;DHT22;21818;51.078;12.108;2023-08-17T08:46:45;24.10;98.20
35700;DHT22;21818;51.078;12.108;2023-08-17T08:49:12;24.10;98.20
35700;DHT22;21818;51.078;12.108;2023-08-17T08:51:46;24.10;98.00
35700;DHT22;21818;51.078;12.108;2023-08-17T08:54:13;24.20;97.70
35700;DHT22;21818;51.078;12.108;2023-08-17T08:56:42;24.20;97.50
35700;DHT22;21818;51.078;12.108;2023-08-17T08:59:10;24.20;97.30
35700;DHT22;21818;51.078;12.108;2023-08-17T09:01:36;24.30;97.40
35700;DHT22;21818;51.078;12.108;2023-08-17T09:04:03;24.20;97.10
35700;DHT22;21818;51.078;12.108;2023-08-17T09:06:30;24.30;97.00
35700;DHT22;21818;51.078;12.108;2023-08-17T09:09:01;24.30;96.90
35700;DHT22;21818;51.078;12.108;2023-08-17T09:11:26;24.30;96.80
35700;DHT22;21818;51.078;12.108;2023-08-17T09:13:53;24.30;96.70
35700;DHT22;21818;51.078;12.108;2023-08-17T09:16:20;24.30;96.60
35700;DHT22;21818;51.078;12.108;2023-08-17T09:18:45;24.30;96.60
35700;DHT22;21818;51.078;12.108;2023-08-17T09:21:22;24.30;96.50
35700;DHT22;21818;51.078;12.108;2023-08-17T09:23:55;24.30;96.70
35700;DHT22;21818;51.078;12.108;2023-08-17T09:26:21;24.30;96.40
35700;DHT22;21818;51.078;12.108;2023-08-17T09:28:49;24.30;96.30
35700;DHT22;21818;51.078;12.108;2023-08-17T09:31:15;24.40;96.30
35700;DHT22;21818;51.078;12.108;2023-08-17T09:33:40;24.30;96.20
35700;DHT22;21818;51.078;12.108;2023-08-17T09:36:06;24.40;96.20
35700;DHT22;21818;51.078;12.108;2023-08-17T09:38:31;24.40;96.20
35700;DHT22;21818;51.078;12.108;2023-08-17T09:40:58;24.40;96.10
35700;DHT22;21818;51.078;12.108;2023-08-17T09:43:24;24.40;96.10
35700;DHT22;21818;51.078;12.108;2023-08-17T09:45:54;24.40;96.00
35700;DHT22;21818;51.078;12.108;2023-08-17T09:48:20;24.40;96.00
35700;DHT22;21818;51.078;12.108;2023-08-17T09:50:46;24.40;96.00
35700;DHT22;21818;51.078;12.108;2023-08-17T09:53:16;24.40;96.10
35700;DHT22;21818;51.078;12.108;2023-08-17T09:55:43;24.50;95.90
35700;DHT22;21818;51.078;12.108;2023-08-17T09:58:09;24.50;95.90
35700;DHT22;21818;51.078;12.108;2023-08-17T10:00:36;24.50;95.80
35700;DHT22;21818;51.078;12.108;2023-08-17T10:03:03;24.50;95.80
35700;DHT22;21818;51.078;12.108;2023-08-17T10:05:31;24.50;95.80
35700;DHT22;21818;51.078;12.108;2023-08-17T10:07:57;24.50;95.70
35700;DHT22;21818;51.078;12.108;2023-08-17T10:10:26;24.50;95.70
35700;DHT22;21818;51.078;12.108;2023-08-17T10:15:26;24.50;95.70
35700;DHT22;21818;51.078;12.108;2023-08-17T10:18:29;24.50;95.60
35700;DHT22;21818;51.078;12.108;2023-08-17T10:21:06;24.50;95.60
35700;DHT22;21818;51.078;12.108;2023-08-17T10:23:32;24.50;95.60
35700;DHT22;21818;51.078;12.108;2023-08-17T10:26:00;24.50;95.60
35700;DHT22;21818;51.078;12.108;2023-08-17T10:28:27;24.50;95.60
35700;DHT22;21818;51.078;12.108;2023-08-17T10:30:53;24.50;95.50
35700;DHT22;21818;51.078;12.108;2023-08-17T10:33:19;24.50;95.50
35700;DHT22;21818;51.078;12.108;2023-08-17T10:35:45;24.50;95.50
35700;DHT22;21818;51.078;12.108;2023-08-17T10:38:12;24.60;95.50
35700;DHT22;21818;51.078;12.108;2023-08-17T10:40:40;24.60;95.40
35700;DHT22;21818;51.078;12.108;2023-08-17T10:43:06;24.60;95.40
35700;DHT22;21818;51.078;12.108;2023-08-17T10:45:36;24.60;95.40
35700;DHT22;21818;51.078;12.108;2023-08-17T10:50:36;24.60;95.30
35700;DHT22;21818;51.078;12.108;2023-08-17T10:53:11;24.60;95.30
35700;DHT22;21818;51.078;12.108;2023-08-17T10:55:46;24.60;95.20
35700;DHT22;21818;51.078;12.108;2023-08-17T10:58:16;24.60;95.20
35700;DHT22;21818;51.078;12.108;2023-08-17T11:00:42;24.60;95.20
35700;DHT22;21818;51.078;12.108;2023-08-17T11:03:17;24.60;95.20
35700;DHT22;21818;51.078;12.108;2023-08-17T11:05:51;24.60;95.10
35700;DHT22;21818;51.078;12.108;2023-08-17T11:08:50;24.60;95.10
35700;DHT22;21818;51.078;12.108;2023-08-17T11:11:16;24.60;95.10
35700;DHT22;21818;51.078;12.108;2023-08-17T11:13:45;24.60;95.10
35700;DHT22;21818;51.078;12.108;2023-08-17T11:16:13;24.70;95.00
35700;DHT22;21818;51.078;12.108;2023-08-17T11:18:39;24.70;95.00
35700;DHT22;21818;51.078;12.108;2023-08-17T11:21:07;24.60;95.00
35700;DHT22;21818;51.078;12.108;2023-08-17T11:23:34;24.70;95.00
35700;DHT22;21818;51.078;12.108;2023-08-17T11:26:00;24.70;95.20
35700;DHT22;21818;51.078;12.108;2023-08-17T11:28:26;24.70;94.90
35700;DHT22;21818;51.078;12.108;2023-08-17T11:31:09;24.70;94.90
35700;DHT22;21818;51.078;12.108;2023-08-17T11:33:37;24.70;94.80
35700;DHT22;21818;51.078;12.108;2023-08-17T11:36:04;24.70;94.80
35700;DHT22;21818;51.078;12.108;2023-08-17T11:38:35;24.70;94.80
35700;DHT22;21818;51.078;12.108;2023-08-17T11:41:02;24.80;94.80
35700;DHT22;21818;51.078;12.108;2023-08-17T11:43:33;24.80;94.80
35700;DHT22;21818;51.078;12.108;2023-08-17T11:46:00;24.80;94.80
35700;DHT22;21818;51.078;12.108;2023-08-17T11:48:26;24.70;94.70
35700;DHT22;21818;51.078;12.108;2023-08-17T11:50:52;24.70;94.70
35700;DHT22;21818;51.078;12.108;2023-08-17T11:53:18;24.80;94.70
35700;DHT22;21818;51.078;12.108;2023-08-17T11:55:44;24.80;94.70
35700;DHT22;21818;51.078;12.108;2023-08-17T11:58:09;24.80;94.60
35700;DHT22;21818;51.078;12.108;2023-08-17T12:00:36;24.80;94.60
35700;DHT22;21818;51.078;12.108;2023-08-17T12:03:05;24.80;94.60
35700;DHT22;21818;51.078;12.108;2023-08-17T12:05:31;24.80;94.50
35700;DHT22;21818;51.078;12.108;2023-08-17T12:07:59;24.80;94.50
35700;DHT22;21818;51.078;12.108;2023-08-17T12:10:28;24.80;94.70
35700;DHT22;21818;51.078;12.108;2023-08-17T12:12:57;24.80;94.50
35700;DHT22;21818;51.078;12.108;2023-08-17T12:15:24;24.80;94.40
35700;DHT22;21818;51.078;12.108;2023-08-17T12:17:51;24.80;94.40
35700;DHT22;21818;51.078;12.108;2023-08-17T12:20:19;24.80;94.40
35700;DHT22;21818;51.078;12.108;2023-08-17T12:22:46;24.90;94.40
35700;DHT22;21818;51.078;12.108;2023-08-17T12:25:12;24.80;94.30
35700;DHT22;21818;51.078;12.108;2023-08-17T12:27:37;24.90;94.30
35700;DHT22;21818;51.078;12.108;2023-08-17T12:30:04;24.90;94.30
35700;DHT22;21818;51.078;12.108;2023-08-17T12:32:29;24.90;94.30
35700;DHT22;21818;51.078;12.108;2023-08-17T12:34:55;24.90;94.20
35700;DHT22;21818;51.078;12.108;2023-08-17T12:37:21;24.90;94.20
35700;DHT22;21818;51.078;12.108;2023-08-17T12:39:47;24.90;94.20
35700;DHT22;21818;51.078;12.108;2023-08-17T12:42:13;24.90;94.20
35700;DHT22;21818;51.078;12.108;2023-08-17T12:44:39;25.00;94.20
35700;DHT22;21818;51.078;12.108;2023-08-17T12:47:05;25.00;94.20
35700;DHT22;21818;51.078;12.108;2023-08-17T12:49:30;24.90;94.10
35700;DHT22;21818;51.078;12.108;2023-08-17T12:51:56;25.00;94.10
35700;DHT22;21818;51.078;12.108;2023-08-17T12:54:22;25.00;94.10
35700;DHT22;21818;51.078;12.108;2023-08-17T12:56:47;25.00;94.10
35700;DHT22;21818;51.078;12.108;2023-08-17T12:59:13;25.00;94.00
35700;DHT22;21818;51.078;12.108;2023-08-17T13:01:39;25.00;94.00
35700;DHT22;21818;51.078;12.108;2023-08-17T13:04:05;25.00;94.00
35700;DHT22;21818;51.078;12.108;2023-08-17T13:06:31;25.00;93.90
35700;DHT22;21818;51.078;12.108;2023-08-17T13:08:57;25.00;93.90
35700;DHT22;21818;51.078;12.108;2023-08-17T13:11:22;25.10;93.90
35700;DHT22;21818;51.078;12.108;2023-08-17T13:13:48;25.10;93.90
35700;DHT22;21818;51.078;12.108;2023-08-17T13:16:14;25.10;93.90
35700;DHT22;21818;51.078;12.108;2023-08-17T13:18:39;25.10;93.80
35700;DHT22;21818;51.078;12.108;2023-08-17T13:21:05;25.20;93.80
35700;DHT22;21818;51.078;12.108;2023-08-17T13:23:30;25.20;93.80
35700;DHT22;21818;51.078;12.108;2023-08-17T13:25:56;25.20;93.80
35700;DHT22;21818;51.078;12.108;2023-08-17T13:28:22;25.10;93.70
35700;DHT22;21818;51.078;12.108;2023-08-17T13:30:48;25.20;93.70
35700;DHT22;21818;51.078;12.108;2023-08-17T13:33:13;25.20;93.90
35700;DHT22;21818;51.078;12.108;2023-08-17T13:35:41;25.20;93.70
35700;DHT22;21818;51.078;12.108;2023-08-17T13:38:07;25.20;93.60
35700;DHT22;21818;51.078;12.108;2023-08-17T13:40:32;25.30;93.60
35700;DHT22;21818;51.078;12.108;2023-08-17T13:42:59;25.40;93.50
35700;DHT22;21818;51.078;12.108;2023-08-17T13:45:26;25.50;93.40
35700;DHT22;21818;51.078;12.108;2023-08-17T13:47:52;25.50;93.50
35700;DHT22;21818;51.078;12.108;2023-08-17T13:50:17;25.60;93.30
35700;DHT22;21818;51.078;12.108;2023-08-17T13:52:44;25.60;93.30
35700;DHT22;21818;51.078;12.108;2023-08-17T13:55:10;25.60;93.30
35700;DHT22;21818;51.078;12.108;2023-08-17T13:57:35;25.60;93.20
35700;DHT22;21818;51.078;12.108;2023-08-17T14:00:01;25.60;93.20
35700;DHT22;21818;51.078;12.108;2023-08-17T14:02:29;25.60;93.20
35700;DHT22;21818;51.078;12.108;2023-08-17T14:04:55;25.60;93.30
35700;DHT22;21818;51.078;12.108;2023-08-17T14:07:20;25.60;93.30
35700;DHT22;21818;51.078;12.108;2023-08-17T14:09:46;25.60;93.30
35700;DHT22;21818;51.078;12.108;2023-08-17T14:12:11;25.60;93.40
35700;DHT22;21818;51.078;12.108;2023-08-17T14:14:37;25.60;93.50
35700;DHT22;21818;51.078;12.108;2023-08-17T14:17:02;25.60;93.50
35700;DHT22;21818;51.078;12.108;2023-08-17T14:19:28;25.60;93.50
35700;DHT22;21818;51.078;12.108;2023-08-17T14:21:54;25.60;94.00
35700;DHT22;21818;51.078;12.108;2023-08-17T14:24:19;25.60;93.70
35700;DHT22;21818;51.078;12.108;2023-08-17T14:26:45;25.60;93.70
35700;DHT22;21818;51.078;12.108;2023-08-17T14:29:11;25.60;93.90
35700;DHT22;21818;51.078;12.108;2023-08-17T14:31:36;25.60;93.90
35700;DHT22;21818;51.078;12.108;2023-08-17T14:34:02;25.60;93.90
35700;DHT22;21818;51.078;12.108;2023-08-17T14:36:28;25.60;93.90
35700;DHT22;21818;51.078;12.108;2023-08-17T14:38:53;25.50;93.90
35700;DHT22;21818;51.078;12.108;2023-08-17T14:41:19;25.50;93.90
35700;DHT22;21818;51.078;12.108;2023-08-17T14:43:45;25.50;93.90
35700;DHT22;21818;51.078;12.108;2023-08-17T14:46:10;25.50;94.20
35700;DHT22;21818;51.078;12.108;2023-08-17T14:48:36;25.50;94.20
35700;DHT22;21818;51.078;12.108;2023-08-17T14:51:01;25.50;94.10
35700;DHT22;21818;51.078;12.108;2023-08-17T14:53:27;25.50;94.30
35700;DHT22;21818;51.078;12.108;2023-08-17T14:55:53;25.50;94.70
35700;DHT22;21818;51.078;12.108;2023-08-17T14:58:19;25.50;94.60
35700;DHT22;21818;51.078;12.108;2023-08-17T15:00:44;25.50;94.70
35700;DHT22;21818;51.078;12.108;2023-08-17T15:03:10;25.50;94.70
35700;DHT22;21818;51.078;12.108;2023-08-17T15:05:36;25.50;94.80
35700;DHT22;21818;51.078;12.108;2023-08-17T15:08:03;25.50;95.00
35700;DHT22;21818;51.078;12.108;2023-08-17T15:10:29;25.50;95.20
35700;DHT22;21818;51.078;12.108;2023-08-17T15:12:55;25.40;95.30
35700;DHT22;21818;51.078;12.108;2023-08-17T15:15:20;25.40;95.60
35700;DHT22;21818;51.078;12.108;2023-08-17T15:17:46;25.40;95.60